createdAt,value
2023-04-14T00:00:11.306Z,96299.22
2023-04-14T00:02:14.178Z,96294.75
2023-04-14T00:04:17.410Z,96286.81
2023-04-14T00:06:20.356Z,96292.91
2023-04-14T00:08:23.176Z,96298.41
2023-04-14T00:10:26.807Z,96301.28
2023-04-14T00:12:29.906Z,96299.66
2023-04-14T00:14:32.670Z,96299.88
2023-04-14T00:16:36.915Z,96295.81
2023-04-14T00:18:39.804Z,96298.25
2023-04-14T00:20:42.540Z,96292.13
2023-04-14T00:22:45.357Z,96296.63
2023-04-14T00:24:51.173Z,96291.53
2023-04-14T00:26:53.984Z,96289.91
2023-04-14T00:28:56.704Z,96294.41
2023-04-14T00:30:59.591Z,96297.22
2023-04-14T00:33:03.763Z,96302.53
2023-04-14T00:35:07.267Z,96307.81
2023-04-14T00:37:10.139Z,96294.78
2023-04-14T00:39:12.871Z,96302.72
2023-04-14T00:41:15.599Z,96298.84
2023-04-14T00:43:19.897Z,96298.84
2023-04-14T00:45:22.893Z,96291.53
2023-04-14T00:47:25.918Z,96296.84
2023-04-14T00:49:30.574Z,96298.03
2023-04-14T00:51:33.732Z,96295.41
2023-04-14T00:53:36.690Z,96295.22
2023-04-14T00:55:40.570Z,96290.72
2023-04-14T00:57:43.706Z,96284.63
2023-04-14T00:59:46.533Z,96291.75
2023-04-14T01:01:49.393Z,96288.25
2023-04-14T01:03:53.721Z,96281.34
2023-04-14T01:05:58.032Z,96288.47
2023-04-14T01:08:01.543Z,96286.25
2023-04-14T01:10:05.805Z,96278.53
2023-04-14T01:12:19.124Z,96276.69
2023-04-14T01:14:29.388Z,96283.03
2023-04-14T01:16:37.756Z,96283.44
2023-04-14T01:18:52.931Z,96292.41
2023-04-14T01:21:04.473Z,96286.69
2023-04-14T01:23:09.114Z,96293.22
2023-04-14T01:25:42.064Z,96286.53
2023-04-14T01:27:58.435Z,96294.84
2023-04-14T01:30:28.370Z,96295.06
2023-04-14T01:32:37.271Z,96289.97
2023-04-14T01:34:47.174Z,96302.59
2023-04-14T01:36:56.567Z,96292.66
2023-04-14T01:39:00.445Z,96298.97
2023-04-14T01:41:07.218Z,96298.97
2023-04-14T01:43:13.145Z,96301.63
2023-04-14T01:45:20.857Z,96301.78
2023-04-14T01:47:27.115Z,96303.84
2023-04-14T01:49:36.670Z,96307.50
2023-04-14T01:51:43.676Z,96302.84
2023-04-14T01:53:47.809Z,96315.03
2023-04-14T01:55:52.513Z,96309.53
2023-04-14T01:57:57.935Z,96311.59
2023-04-14T02:00:02.374Z,96311.00
2023-04-14T02:02:09.879Z,96308.34
2023-04-14T02:04:14.366Z,96308.34
2023-04-14T02:06:21.603Z,96303.44
2023-04-14T02:08:25.748Z,96306.31
2023-04-14T02:10:29.635Z,96302.84
2023-04-14T02:12:33.407Z,96296.16
2023-04-14T02:14:37.516Z,96296.97
2023-04-14T02:16:41.094Z,96296.16
2023-04-14T02:18:44.223Z,96295.13
2023-04-14T02:20:48.329Z,96305.91
2023-04-14T02:22:52.507Z,96298.41
2023-04-14T02:24:55.381Z,96295.53
2023-04-14T02:27:04.055Z,96300.84
2023-04-14T02:29:12.506Z,96303.47
2023-04-14T02:31:21.419Z,96300.22
2023-04-14T02:33:28.279Z,96296.13
2023-04-14T02:35:38.020Z,96303.69
2023-04-14T02:37:44.964Z,96304.69
2023-04-14T02:39:54.532Z,96306.72
2023-04-14T02:42:02.482Z,96308.75
2023-04-14T02:44:11.786Z,96301.25
2023-04-14T02:46:17.868Z,96305.50
2023-04-14T02:48:24.925Z,96304.69
2023-04-14T02:50:29.697Z,96306.72
2023-04-14T02:52:34.734Z,96304.28
2023-04-14T02:54:40.035Z,96316.88
2023-04-14T02:56:45.047Z,96313.66
2023-04-14T02:58:48.625Z,96316.50
2023-04-14T03:00:52.188Z,96313.03
2023-04-14T03:02:57.546Z,96305.31
2023-04-14T03:05:01.733Z,96307.34
2023-04-14T03:07:06.655Z,96307.13
2023-04-14T03:09:09.921Z,96311.41
2023-04-14T03:11:14.429Z,96318.94
2023-04-14T03:13:19.714Z,96317.31
2023-04-14T03:15:23.817Z,96313.25
2023-04-14T03:17:28.502Z,96312.44
2023-04-14T03:19:33.810Z,96316.91
2023-04-14T03:21:37.679Z,96310.81
2023-04-14T03:23:41.062Z,96304.91
2023-04-14T03:25:44.436Z,96309.19
2023-04-14T03:27:48.146Z,96307.56
2023-04-14T03:29:54.977Z,96304.28
2023-04-14T03:32:00.776Z,96314.84
2023-04-14T03:34:06.882Z,96309.56
2023-04-14T03:36:10.870Z,96304.28
2023-04-14T03:38:16.758Z,96308.34
2023-04-14T03:40:20.050Z,96305.13
2023-04-14T03:42:26.027Z,96300.63
2023-04-14T03:44:32.461Z,96305.94
2023-04-14T03:46:36.921Z,96313.66
2023-04-14T03:48:42.521Z,96312.84
2023-04-14T03:50:47.673Z,96316.28
2023-04-14T03:52:52.981Z,96319.34
2023-04-14T03:54:58.951Z,96313.44
2023-04-14T03:57:06.155Z,96305.91
2023-04-14T03:59:12.637Z,96313.22
2023-04-14T04:01:16.346Z,96309.78
2023-04-14T04:03:22.790Z,96308.75
2023-04-14T04:05:25.860Z,96306.72
2023-04-14T04:07:32.032Z,96308.16
2023-04-14T04:09:36.943Z,96302.06
2023-04-14T04:11:41.154Z,96295.34
2023-04-14T04:13:44.448Z,96304.69
2023-04-14T04:15:50.440Z,96303.06
2023-04-14T04:17:53.836Z,96311.00
2023-04-14T04:19:59.636Z,96310.41
2023-04-14T04:22:03.230Z,96309.94
2023-04-14T04:24:07.625Z,96306.47
2023-04-14T04:26:10.237Z,96311.78
2023-04-14T04:28:13.260Z,96309.13
2023-04-14T04:30:19.417Z,96309.75
2023-04-14T04:32:22.532Z,96309.59
2023-04-14T04:34:27.249Z,96311.22
2023-04-14T04:36:32.571Z,96313.84
2023-04-14T04:38:35.309Z,96311.38
2023-04-14T04:40:38.569Z,96314.88
2023-04-14T04:42:45.113Z,96312.41
2023-04-14T04:44:47.842Z,96324.59
2023-04-14T04:46:54.249Z,96322.59
2023-04-14T04:48:58.785Z,96324.63
2023-04-14T04:51:01.638Z,96324.81
2023-04-14T04:53:05.712Z,96322.78
2023-04-14T04:55:08.807Z,96326.25
2023-04-14T04:57:12.233Z,96327.66
2023-04-14T04:59:15.417Z,96336.41
2023-04-14T05:01:19.251Z,96333.94
2023-04-14T05:03:22.199Z,96324.03
2023-04-14T05:05:24.984Z,96318.09
2023-04-14T05:07:28.118Z,96322.78
2023-04-14T05:09:32.289Z,96327.47
2023-04-14T05:11:35.596Z,96330.72
2023-04-14T05:13:38.615Z,96327.03
2023-04-14T05:15:41.391Z,96333.34
2023-04-14T05:17:44.638Z,96336.19
2023-04-14T05:19:47.561Z,96340.69
2023-04-14T05:21:50.333Z,96346.38
2023-04-14T05:23:53.114Z,96348.19
2023-04-14T05:26:11.208Z,96352.06
2023-04-14T05:28:21.260Z,96351.47
2023-04-14T05:30:24.519Z,96352.47
2023-04-14T05:32:29.136Z,96353.50
2023-04-14T05:34:32.263Z,96354.09
2023-04-14T05:36:36.143Z,96354.31
2023-04-14T05:38:40.929Z,96354.31
2023-04-14T05:40:43.973Z,96354.69
2023-04-14T05:42:48.053Z,96364.66
2023-04-14T05:44:50.944Z,96362.41
2023-04-14T05:46:53.968Z,96364.69
2023-04-14T05:48:57.573Z,96367.31
2023-04-14T05:51:00.443Z,96361.81
2023-04-14T05:53:03.263Z,96368.53
2023-04-14T05:55:06.852Z,96366.50
2023-04-14T05:57:09.742Z,96361.81
2023-04-14T05:59:13.939Z,96360.19
2023-04-14T06:01:16.923Z,96363.84
2023-04-14T06:03:20.026Z,96363.66
2023-04-14T06:05:24.198Z,96359.59
2023-04-14T06:07:27.277Z,96364.25
2023-04-14T06:09:30.215Z,96362.22
2023-04-14T06:11:33.153Z,96363.84
2023-04-14T06:13:36.566Z,96364.47
2023-04-14T06:15:40.873Z,96359.16
2023-04-14T06:17:44.052Z,96364.47
2023-04-14T06:19:48.282Z,96362.44
2023-04-14T06:21:51.897Z,96365.69
2023-04-14T06:23:54.705Z,96363.25
2023-04-14T06:25:57.842Z,96359.97
2023-04-14T06:28:03.417Z,96359.16
2023-04-14T06:30:07.937Z,96357.97
2023-04-14T06:32:12.126Z,96350.25
2023-04-14T06:34:15.076Z,96348.22
2023-04-14T06:36:18.215Z,96351.66
2023-04-14T06:38:21.222Z,96341.31
2023-04-14T06:40:24.074Z,96343.75
2023-04-14T06:42:27.260Z,96347.00
2023-04-14T06:44:30.030Z,96343.75
2023-04-14T06:46:35.884Z,96339.25
2023-04-14T06:48:40.180Z,96336.63
2023-04-14T06:50:44.285Z,96328.09
2023-04-14T06:52:47.379Z,96332.97
2023-04-14T06:54:50.453Z,96321.38
2023-04-14T06:56:53.170Z,96324.63
2023-04-14T06:58:56.056Z,96320.56
2023-04-14T07:00:59.700Z,96321.16
2023-04-14T07:03:02.802Z,96321.78
2023-04-14T07:05:08.338Z,96315.47
2023-04-14T07:07:11.533Z,96312.41
2023-04-14T07:09:14.723Z,96316.47
2023-04-14T07:11:17.551Z,96315.63
2023-04-14T07:13:20.355Z,96315.03
2023-04-14T07:15:23.133Z,96320.13
2023-04-14T07:17:26.087Z,96313.63
2023-04-14T07:19:28.990Z,96312.00
2023-04-14T07:21:33.175Z,96317.47
2023-04-14T07:23:35.914Z,96319.09
2023-04-14T07:25:38.704Z,96306.09
2023-04-14T07:27:47.310Z,96309.94
2023-04-14T07:29:59.495Z,96313.19
2023-04-14T07:32:02.906Z,96305.88
2023-04-14T07:34:05.930Z,96305.66
2023-04-14T07:36:09.865Z,96312.16
2023-04-14T07:38:14.045Z,96313.56
2023-04-14T07:40:18.581Z,96311.13
2023-04-14T07:42:21.312Z,96306.66
2023-04-14T07:44:24.331Z,96304.22
2023-04-14T07:46:27.629Z,96303.41
2023-04-14T07:48:30.607Z,96301.38
2023-04-14T07:50:33.726Z,96296.06
2023-04-14T07:52:36.954Z,96295.06
2023-04-14T07:54:41.109Z,96295.66
2023-04-14T07:56:45.011Z,96298.50
2023-04-14T07:58:48.156Z,96293.59
2023-04-14T08:00:51.164Z,96291.75
2023-04-14T08:02:54.349Z,96291.97
2023-04-14T08:04:57.162Z,96291.56
2023-04-14T08:06:59.924Z,96288.09
2023-04-14T08:09:03.079Z,96289.28
2023-04-14T08:11:07.594Z,96289.91
2023-04-14T08:13:10.550Z,96295.81
2023-04-14T08:15:13.599Z,96293.34
2023-04-14T08:17:16.760Z,96289.44
2023-04-14T08:19:19.642Z,96284.78
2023-04-14T08:21:22.906Z,96291.47
2023-04-14T08:23:25.859Z,96291.47
2023-04-14T08:25:28.637Z,96283.34
2023-04-14T08:27:32.876Z,96279.28
2023-04-14T08:29:35.626Z,96280.09
2023-04-14T08:31:38.427Z,96285.38
2023-04-14T08:33:41.483Z,96282.09
2023-04-14T08:35:44.501Z,96284.31
2023-04-14T08:37:47.271Z,96280.44
2023-04-14T08:39:50.414Z,96283.91
2023-04-14T08:41:54.164Z,96273.31
2023-04-14T08:43:58.301Z,96280.03
2023-04-14T08:46:02.113Z,96280.03
2023-04-14T08:48:06.185Z,96272.28
2023-04-14T08:50:14.357Z,96275.75
2023-04-14T08:52:20.060Z,96272.69
2023-04-14T08:54:23.185Z,96278.34
2023-04-14T08:56:31.781Z,96272.44
2023-04-14T08:58:34.654Z,96278.34
2023-04-14T09:00:40.021Z,96278.34
2023-04-14T09:02:43.511Z,96277.31
2023-04-14T09:04:47.131Z,96265.69
2023-04-14T09:06:50.186Z,96268.94
2023-04-14T09:08:53.807Z,96274.03
2023-04-14T09:10:56.647Z,96282.97
2023-04-14T09:13:00.087Z,96277.31
2023-04-14T09:15:03.781Z,96279.53
2023-04-14T09:17:08.276Z,96279.53
2023-04-14T09:19:11.922Z,96277.50
2023-04-14T09:21:50.856Z,96273.00
2023-04-14T09:23:41.574Z,96270.38
2023-04-14T09:25:44.656Z,96272.19
2023-04-14T09:27:49.002Z,96267.72
2023-04-14T09:29:53.395Z,96265.06
2023-04-14T09:31:56.227Z,96260.97
2023-04-14T09:34:01.016Z,96266.47
2023-04-14T09:36:03.998Z,96253.44
2023-04-14T09:38:07.914Z,96256.69
2023-04-14T09:40:11.799Z,96252.59
2023-04-14T09:42:14.712Z,96260.31
2023-04-14T09:44:17.631Z,96256.44
2023-04-14T09:46:20.532Z,96255.81
2023-04-14T09:48:24.392Z,96259.50
2023-04-14T09:50:29.170Z,96253.59
2023-04-14T09:52:39.026Z,96255.44
2023-04-14T09:54:43.124Z,96250.53
2023-04-14T09:56:46.893Z,96250.53
2023-04-14T09:58:50.301Z,96246.25
2023-04-14T10:00:53.318Z,96241.63
2023-04-14T10:02:59.131Z,96246.09
2023-04-14T10:05:06.472Z,96241.19
2023-04-14T10:07:12.253Z,96243.22
2023-04-14T10:09:22.637Z,96247.50
2023-04-14T10:11:27.388Z,96235.88
2023-04-14T10:13:30.670Z,96237.91
2023-04-14T10:15:33.783Z,96240.75
2023-04-14T10:17:37.231Z,96237.25
2023-04-14T10:19:40.225Z,96232.75
2023-04-14T10:21:43.088Z,96233.56
2023-04-14T10:23:47.259Z,96230.13
2023-04-14T10:25:51.501Z,96231.97
2023-04-14T10:27:55.108Z,96230.13
2023-04-14T10:29:58.017Z,96226.66
2023-04-14T10:32:06.000Z,96214.22
2023-04-14T10:34:10.560Z,96214.59
2023-04-14T10:36:13.873Z,96210.47
2023-04-14T10:38:17.249Z,96198.66
2023-04-14T10:40:23.016Z,96200.06
2023-04-14T10:42:27.075Z,96198.59
2023-04-14T10:44:31.658Z,96192.03
2023-04-14T10:46:44.406Z,96186.09
2023-04-14T10:48:49.274Z,96190.53
2023-04-14T10:50:56.907Z,96180.09
2023-04-14T10:53:09.171Z,96177.00
2023-04-14T10:55:12.193Z,96174.34
2023-04-14T10:57:17.681Z,96168.59
2023-04-14T10:59:21.728Z,96163.88
2023-04-14T11:01:31.446Z,96167.34
2023-04-14T11:03:45.718Z,96162.03
2023-04-14T11:05:50.552Z,96165.91
2023-04-14T11:08:00.693Z,96157.94
2023-04-14T11:10:26.836Z,96155.06
2023-04-14T11:12:31.418Z,96153.81
2023-04-14T11:14:36.250Z,96156.25
2023-04-14T11:16:47.633Z,96151.56
2023-04-14T11:19:02.395Z,96147.44
2023-04-14T11:21:07.031Z,96144.78
2023-04-14T11:23:10.233Z,96142.34
2023-04-14T11:25:14.418Z,96139.47
2023-04-14T11:27:17.878Z,96136.16
2023-04-14T11:29:22.172Z,96134.53
2023-04-14T11:31:28.133Z,96131.44
2023-04-14T11:33:32.304Z,96121.22
2023-04-14T11:35:35.251Z,96114.41
2023-04-14T11:37:38.189Z,96117.81
2023-04-14T11:39:41.381Z,96106.75
2023-04-14T11:41:47.684Z,96120.59
2023-04-14T11:43:51.706Z,96125.66
2023-04-14T11:45:56.017Z,96118.31
2023-04-14T11:48:00.786Z,96113.38
2023-04-14T11:50:05.640Z,96107.38
2023-04-14T11:52:09.794Z,96105.53
2023-04-14T11:54:13.276Z,96103.13
2023-04-14T11:56:16.150Z,96093.69
2023-04-14T11:58:22.696Z,96102.00
2023-04-14T12:00:25.567Z,96090.94
2023-04-14T12:02:30.341Z,96089.44
2023-04-14T12:04:33.324Z,96088.78
2023-04-14T12:06:39.024Z,96085.91
2023-04-14T12:08:41.829Z,96090.16
2023-04-14T12:10:46.869Z,96085.09
2023-04-14T12:12:49.602Z,96077.94
2023-04-14T12:14:54.910Z,96073.78
2023-04-14T12:16:57.869Z,96078.66
2023-04-14T12:19:04.348Z,96067.59
2023-04-14T12:21:10.907Z,96069.00
2023-04-14T12:23:16.513Z,96060.22
2023-04-14T12:25:19.813Z,96063.94
2023-04-14T12:27:24.643Z,96056.97
2023-04-14T12:29:27.500Z,96057.56
2023-04-14T12:31:31.083Z,96055.28
2023-04-14T12:33:34.557Z,96052.41
2023-04-14T12:35:39.201Z,96054.59
2023-04-14T12:37:49.861Z,96041.44
2023-04-14T12:39:57.275Z,96032.56
2023-04-14T12:42:01.021Z,96040.31
2023-04-14T12:44:15.380Z,96032.13
2023-04-14T12:46:25.777Z,96032.13
2023-04-14T12:48:44.234Z,96036.38
2023-04-14T12:50:50.169Z,96028.41
2023-04-14T12:52:54.652Z,96036.38
2023-04-14T12:54:57.556Z,96029.22
2023-04-14T12:57:00.620Z,96027.75
2023-04-14T12:59:04.983Z,96026.00
2023-04-14T13:01:09.116Z,96016.53
2023-04-14T13:03:12.123Z,96014.00
2023-04-14T13:05:15.618Z,96011.34
2023-04-14T13:07:20.104Z,95999.91
2023-04-14T13:09:22.940Z,96000.72
2023-04-14T13:11:26.025Z,95992.75
2023-04-14T13:13:29.244Z,95987.22
2023-04-14T13:16:13.082Z,95988.81
2023-04-14T13:17:55.634Z,95992.63
2023-04-14T13:19:58.436Z,95988.72
2023-04-14T13:22:01.362Z,95988.25
2023-04-14T13:24:06.933Z,95990.44
2023-04-14T13:26:09.718Z,95974.72
2023-04-14T13:28:12.557Z,95984.22
2023-04-14T13:30:15.351Z,95970.69
2023-04-14T13:32:18.437Z,95973.44
2023-04-14T13:34:21.369Z,95968.50
2023-04-14T13:36:24.157Z,95962.72
2023-04-14T13:38:27.154Z,95960.16
2023-04-14T13:40:31.445Z,95956.22
2023-04-14T13:42:34.315Z,95952.63
2023-04-14T13:44:37.578Z,95952.16
2023-04-14T13:46:41.454Z,95953.75
2023-04-14T13:48:44.555Z,95944.78
2023-04-14T13:50:47.409Z,95937.38
2023-04-14T13:52:50.324Z,95933.19
2023-04-14T13:54:53.374Z,95934.22
2023-04-14T13:56:57.691Z,95925.78
2023-04-14T13:59:00.874Z,95931.09
2023-04-14T14:01:10.387Z,95923.34
2023-04-14T14:03:13.483Z,95924.16
2023-04-14T14:05:17.177Z,95923.94
2023-04-14T14:07:19.993Z,95927.38
2023-04-14T14:09:23.280Z,95922.88
2023-04-14T14:11:26.227Z,95916.31
2023-04-14T14:13:32.401Z,95916.31
2023-04-14T14:15:35.473Z,95917.09
2023-04-14T14:17:38.304Z,95919.16
2023-04-14T14:19:41.234Z,95913.06
2023-04-14T14:21:44.178Z,95917.56
2023-04-14T14:23:47.297Z,95912.84
2023-04-14T14:25:53.840Z,95916.63
2023-04-14T14:27:57.283Z,95920.66
2023-04-14T14:30:01.372Z,95916.16
2023-04-14T14:32:04.157Z,95918.56
2023-04-14T14:34:09.461Z,95917.53
2023-04-14T14:36:12.391Z,95920.19
2023-04-14T14:38:15.313Z,95908.16
2023-04-14T14:40:18.119Z,95910.81
2023-04-14T14:42:20.873Z,95909.47
2023-04-14T14:44:23.661Z,95906.25
2023-04-14T14:46:27.960Z,95905.66
2023-04-14T14:48:30.946Z,95902.41
2023-04-14T14:50:33.950Z,95893.88
2023-04-14T14:52:36.711Z,95901.84
2023-04-14T14:54:39.485Z,95892.28
2023-04-14T14:56:42.325Z,95891.47
2023-04-14T14:58:45.242Z,95896.53
2023-04-14T15:00:48.010Z,95894.69
2023-04-14T15:02:53.425Z,95889.13
2023-04-14T15:04:56.469Z,95886.03
2023-04-14T15:06:59.500Z,95881.03
2023-04-14T15:09:02.580Z,95882.63
2023-04-14T15:11:06.571Z,95877.06
2023-04-14T15:13:09.333Z,95876.28
2023-04-14T15:15:12.935Z,95874.41
2023-04-14T15:17:16.944Z,95872.81
2023-04-14T15:19:21.176Z,95878.94
2023-04-14T15:21:24.107Z,95878.94
2023-04-14T15:23:26.995Z,95870.25
2023-04-14T15:25:29.829Z,95865.75
2023-04-14T15:27:32.909Z,95868.72
2023-04-14T15:29:35.723Z,95871.72
2023-04-14T15:31:38.547Z,95868.81
2023-04-14T15:33:41.520Z,95868.00
2023-04-14T15:35:45.990Z,95863.28
2023-04-14T15:37:48.860Z,95867.31
2023-04-14T15:39:51.597Z,95860.13
2023-04-14T15:41:54.327Z,95862.53
2023-04-14T15:43:58.095Z,95864.75
2023-04-14T15:46:00.989Z,95869.81
2023-04-14T15:48:03.810Z,95864.50
2023-04-14T15:50:10.081Z,95866.91
2023-04-14T15:52:17.086Z,95863.00
2023-04-14T15:54:20.124Z,95865.66
2023-04-14T15:56:23.754Z,95862.75
2023-04-14T15:58:27.311Z,95864.84
2023-04-14T16:00:30.043Z,95861.94
2023-04-14T16:02:35.205Z,95861.94
2023-04-14T16:04:38.167Z,95854.78
2023-04-14T16:06:41.188Z,95859.53
2023-04-14T16:08:46.044Z,95848.88
2023-04-14T16:10:49.030Z,95857.91
2023-04-14T16:12:51.792Z,95845.44
2023-04-14T16:14:55.177Z,95852.13
2023-04-14T16:16:57.920Z,95857.69
2023-04-14T16:19:00.927Z,95862.19
2023-04-14T16:21:04.106Z,95857.69
2023-04-14T16:23:06.981Z,95862.44
2023-04-14T16:25:11.320Z,95872.22
2023-04-14T16:27:14.202Z,95859.19
2023-04-14T16:29:16.908Z,95865.78
2023-04-14T16:31:19.720Z,95860.47
2023-04-14T16:33:22.538Z,95859.88
2023-04-14T16:35:25.681Z,95862.53
2023-04-14T16:37:28.540Z,95860.94
2023-04-14T16:39:31.699Z,95863.47
2023-04-14T16:41:36.151Z,95864.06
2023-04-14T16:43:38.899Z,95863.47
2023-04-14T16:45:41.944Z,95867.19
2023-04-14T16:47:44.783Z,95871.13
2023-04-14T16:49:49.978Z,95871.38
2023-04-14T16:51:52.772Z,95865.25
2023-04-14T16:53:56.891Z,95872.69
2023-04-14T16:56:04.294Z,95869.47
2023-04-14T16:58:09.596Z,95865.41
2023-04-14T17:00:13.778Z,95869.09
2023-04-14T17:02:16.639Z,95859.53
2023-04-14T17:04:19.704Z,95857.91
2023-04-14T17:06:22.745Z,95848.31
2023-04-14T17:08:25.553Z,95856.28
2023-04-14T17:10:29.811Z,95850.91
2023-04-14T17:12:32.783Z,95852.50
2023-04-14T17:14:37.308Z,95848.47
2023-04-14T17:16:40.288Z,95850.91
2023-04-14T17:18:43.929Z,95850.06
2023-04-14T17:20:47.006Z,95852.50
2023-04-14T17:22:51.724Z,95848.25
2023-04-14T17:24:55.698Z,95852.72
2023-04-14T17:26:58.454Z,95850.91
2023-04-14T17:29:01.648Z,95854.56
2023-04-14T17:31:12.652Z,95849.25
2023-04-14T17:33:17.145Z,95853.22
2023-04-14T17:35:20.194Z,95852.66
2023-04-14T17:37:23.132Z,95847.56
2023-04-14T17:39:27.204Z,95853.94
2023-04-14T17:41:30.127Z,95856.59
2023-04-14T17:43:32.942Z,95851.53
2023-04-14T17:45:35.994Z,95854.97
2023-04-14T17:47:40.235Z,95847.81
2023-04-14T17:49:43.774Z,95850.72
2023-04-14T17:51:46.658Z,95851.53
2023-04-14T17:53:49.704Z,95854.97
2023-04-14T17:55:52.479Z,95853.13
2023-04-14T17:57:56.078Z,95854.19
2023-04-14T17:59:59.669Z,95852.31
2023-04-14T18:02:02.741Z,95862.94
2023-04-14T18:04:06.971Z,95862.72
2023-04-14T18:06:10.928Z,95861.09
2023-04-14T18:08:14.202Z,95862.94
2023-04-14T18:10:17.814Z,95868.28
2023-04-14T18:12:22.444Z,95861.34
2023-04-14T18:14:26.395Z,95866.66
2023-04-14T18:16:29.150Z,95869.31
2023-04-14T18:18:32.703Z,95878.34
2023-04-14T18:20:37.460Z,95878.34
2023-04-14T18:22:40.401Z,95877.75
2023-04-14T18:26:49.082Z,95875.00
2023-04-14T18:28:51.886Z,95884.81
2023-04-14T18:30:55.729Z,95873.88
2023-04-14T18:32:58.755Z,95881.34
2023-04-14T18:35:01.634Z,95875.47
2023-04-14T18:37:05.960Z,95879.19
2023-04-14T18:39:09.018Z,95883.91
2023-04-14T18:41:11.880Z,95884.13
2023-04-14T18:43:14.945Z,95888.66
2023-04-14T18:45:17.927Z,95884.84
2023-04-14T18:47:20.830Z,95894.91
2023-04-14T18:49:24.169Z,95892.25
2023-04-14T18:51:27.455Z,95889.59
2023-04-14T18:53:31.706Z,95890.28
2023-04-14T18:55:43.308Z,95895.03
2023-04-14T18:57:48.900Z,95896.31
2023-04-14T18:59:51.997Z,95908.00
2023-04-14T19:01:55.077Z,95894.72
2023-04-14T19:03:58.135Z,95898.41
2023-04-14T19:06:01.611Z,95897.59
2023-04-14T19:08:04.544Z,95896.78
2023-04-14T19:10:10.222Z,95908.00
2023-04-14T19:12:25.330Z,95898.16
2023-04-14T19:14:31.046Z,95900.03
2023-04-14T19:16:34.650Z,95901.63
2023-04-14T19:18:39.216Z,95900.03
2023-04-14T19:20:47.246Z,95891.47
2023-04-14T19:22:50.420Z,95888.47
2023-04-14T19:24:53.487Z,95894.59
2023-04-14T19:26:58.709Z,95889.50
2023-04-14T19:29:01.944Z,95896.44
2023-04-14T19:31:05.044Z,95899.34
2023-04-14T19:33:08.591Z,95901.41
2023-04-14T19:35:12.759Z,95900.63
2023-04-14T19:37:15.530Z,95903.28
2023-04-14T19:39:20.247Z,95898.19
2023-04-14T19:41:23.270Z,95904.78
2023-04-14T19:43:27.866Z,95899.47
2023-04-14T19:45:30.853Z,95897.84
2023-04-14T19:47:34.092Z,95907.66
2023-04-14T19:49:37.787Z,95913.75
2023-04-14T19:51:40.955Z,95910.53
2023-04-14T19:53:47.066Z,95909.16
2023-04-14T19:55:51.465Z,95906.41
2023-04-14T19:57:54.462Z,95908.25
2023-04-14T19:59:59.202Z,95911.38
2023-04-14T20:02:05.127Z,95907.09
2023-04-14T20:04:12.028Z,95911.03
2023-04-14T20:06:15.257Z,95908.38
2023-04-14T20:08:19.101Z,95910.47
2023-04-14T20:10:22.192Z,95911.25
2023-04-14T20:12:25.454Z,95914.50
2023-04-14T20:14:29.080Z,95901.78
2023-04-14T20:16:33.473Z,95909.19
2023-04-14T20:18:36.335Z,95905.47
2023-04-14T20:20:40.560Z,95903.63
2023-04-14T20:22:43.906Z,95912.16
2023-04-14T20:24:47.614Z,95914.59
2023-04-14T20:26:50.837Z,95918.03
2023-04-14T20:28:53.442Z,95913.34
2023-04-14T20:30:56.355Z,95914.16
2023-04-14T20:33:02.681Z,95908.59
2023-04-14T20:35:06.977Z,95915.28
2023-04-14T20:37:10.009Z,95925.66
2023-04-14T20:39:13.472Z,95924.06
2023-04-14T20:41:16.949Z,95915.53
2023-04-14T20:43:20.087Z,95914.47
2023-04-14T20:45:23.258Z,95926.72
2023-04-14T20:47:26.613Z,95926.72
2023-04-14T20:49:30.922Z,95924.63
2023-04-14T20:51:34.253Z,95924.63
2023-04-14T20:53:37.076Z,95919.69
2023-04-14T20:55:41.082Z,95927.41
2023-04-14T20:57:45.119Z,95926.59
2023-04-14T20:59:48.204Z,95931.69
2023-04-14T21:01:52.588Z,95926.38
2023-04-14T21:03:57.110Z,95931.69
2023-04-14T21:06:01.919Z,95936.75
2023-04-14T21:08:05.114Z,95931.44
2023-04-14T21:10:11.572Z,95933.28
2023-04-14T21:12:16.490Z,95945.53
2023-04-14T21:15:28.977Z,95936.50
2023-04-14T21:16:42.960Z,95941.81
2023-04-14T21:18:46.176Z,95943.91
2023-04-14T21:20:48.922Z,95942.06
2023-04-14T21:22:53.009Z,95943.91
2023-04-14T21:24:55.944Z,95943.91
2023-04-14T21:26:58.701Z,95937.78
2023-04-14T21:29:01.847Z,95938.59
2023-04-14T21:31:05.218Z,95935.94
2023-04-14T21:33:08.714Z,95935.72
2023-04-14T21:35:11.531Z,95943.69
2023-04-14T21:37:16.761Z,95941.81
2023-04-14T21:39:21.796Z,95938.59
2023-04-14T21:41:24.756Z,95945.53
2023-04-14T21:43:27.626Z,95942.06
2023-04-14T21:45:30.853Z,95939.16
2023-04-14T21:47:33.667Z,95943.69
2023-04-14T21:49:36.856Z,95934.66
2023-04-14T21:51:40.101Z,95933.06
2023-04-14T21:53:42.996Z,95941.25
2023-04-14T21:55:47.884Z,95940.22
2023-04-14T21:58:10.657Z,95943.91
2023-04-14T22:00:17.280Z,95945.19
2023-04-14T22:02:20.454Z,95951.31
2023-04-14T22:04:35.441Z,95950.50
2023-04-14T22:06:39.532Z,95954.19
2023-04-14T22:08:42.294Z,95952.59
2023-04-14T22:10:47.279Z,95955.44
2023-04-14T22:12:51.889Z,95953.59
2023-04-14T22:14:54.874Z,95950.13
2023-04-14T22:16:57.725Z,95964.22
2023-04-14T22:19:00.815Z,95969.53
2023-04-14T22:21:04.857Z,95964.22
2023-04-14T22:23:07.636Z,95964.47
2023-04-14T22:25:11.507Z,95959.38
2023-04-14T22:27:14.365Z,95962.84
2023-04-14T22:29:18.656Z,95967.69
2023-04-14T22:31:21.724Z,95958.09
2023-04-14T22:33:24.496Z,95968.72
2023-04-14T22:35:27.365Z,95966.06
2023-04-14T22:37:30.220Z,95973.47
2023-04-14T22:39:32.949Z,95983.28
2023-04-14T22:41:35.777Z,95979.00
2023-04-14T22:43:38.776Z,95980.88
2023-04-14T22:45:43.076Z,95982.94
2023-04-14T22:47:46.085Z,95982.13
2023-04-14T22:49:48.933Z,95984.22
2023-04-14T22:51:51.785Z,95994.84
2023-04-14T22:53:54.750Z,95991.59
2023-04-14T22:55:58.104Z,95998.16
2023-04-14T22:58:00.995Z,96005.09
2023-04-14T23:00:09.036Z,96003.47
2023-04-14T23:02:13.729Z,96012.50
2023-04-14T23:04:16.705Z,96002.34
2023-04-14T23:06:20.037Z,96008.09
2023-04-14T23:08:22.799Z,96001.28
2023-04-14T23:10:25.678Z,96006.69
2023-04-14T23:12:28.493Z,96017.63
2023-04-14T23:14:32.233Z,96011.59
2023-04-14T23:16:35.440Z,96006.84
2023-04-14T23:18:39.999Z,96005.47
2023-04-14T23:20:43.113Z,96006.28
2023-04-14T23:22:45.920Z,96011.81
2023-04-14T23:24:50.147Z,96000.63
2023-04-14T23:26:52.898Z,96002.66
2023-04-14T23:28:55.750Z,96005.13
2023-04-14T23:30:59.137Z,96002.66
2023-04-14T23:33:02.261Z,96009.59
2023-04-14T23:35:07.705Z,96000.84
2023-04-14T23:37:10.585Z,96006.59
2023-04-14T23:39:13.383Z,96004.50
2023-04-14T23:41:16.827Z,96009.00
2023-04-14T23:43:19.577Z,96002.31
2023-04-14T23:45:22.712Z,96010.84
2023-04-14T23:47:25.634Z,96001.03
2023-04-14T23:49:34.453Z,95995.16
2023-04-14T23:51:39.763Z,95998.63
2023-04-14T23:53:42.713Z,95985.59
2023-04-14T23:55:45.721Z,95991.13
